Kwajalein/Bucholz, Marshall Islands
Current Conditions -  °F | °C
As of 5:40 PM on Tuesday 27 Jan 2015 (Local Time) from PKWA Reporting Station
Broken Clouds Broken Clouds  
Wind Chill: 28°   Ceiling: 3700
Heat Index: 30°   Visibility: 10mi
Dew Point: 21°   Wind: 17mph
Humidity: 64%   Direction: 50°NE
Pressure: 29.72"   Gusts: NA
Location:  8.73°N, 167.73°E
Report Text: PKWA 270540Z AUTO 05015KT 10SM SCT025 BKN037 28/21 A2972 RMK AO2 T02830209
Loading
Personal Weather Stations






























Interactive Weather Map New forecast layout! Learn more

10-Day Weather Forecast

Advertisements
Track Severe Weather on mobile